createdAt,value
2023-03-03T00:01:49.152Z,5.83
2023-03-03T00:04:17.327Z,5.81
2023-03-03T00:06:46.250Z,5.68
2023-03-03T00:09:14.407Z,5.83
2023-03-03T00:11:43.916Z,5.85
2023-03-03T00:14:23.396Z,5.91
2023-03-03T00:16:51.551Z,5.88
2023-03-03T00:19:21.786Z,5.91
2023-03-03T00:21:51.725Z,5.83
2023-03-03T00:24:23.015Z,5.78
2023-03-03T00:26:55.614Z,5.69
2023-03-03T00:29:32.679Z,5.82
2023-03-03T00:32:18.373Z,5.78
2023-03-03T00:34:47.270Z,5.60
2023-03-03T00:37:27.010Z,5.69
2023-03-03T00:39:55.707Z,5.72
2023-03-03T00:42:27.487Z,5.76
2023-03-03T00:44:58.746Z,5.50
2023-03-03T00:47:31.802Z,5.77
2023-03-03T00:50:35.958Z,5.74
2023-03-03T00:53:07.554Z,5.75
2023-03-03T00:55:37.169Z,5.69
2023-03-03T00:58:06.904Z,5.64
2023-03-03T01:00:35.735Z,5.60
2023-03-03T01:03:05.806Z,5.62
2023-03-03T01:05:34.089Z,5.72
2023-03-03T01:08:03.192Z,5.57
2023-03-03T01:10:33.799Z,5.62
2023-03-03T01:13:02.157Z,5.52
2023-03-03T01:15:31.825Z,5.63
2023-03-03T01:18:00.022Z,5.62
2023-03-03T01:20:28.165Z,5.11
2023-03-03T01:22:56.323Z,5.63
2023-03-03T01:25:24.486Z,5.63
2023-03-03T01:27:52.643Z,5.61
2023-03-03T01:30:20.957Z,4.63
2023-03-03T01:32:50.493Z,5.65
2023-03-03T01:35:19.259Z,5.60
2023-03-03T01:37:47.462Z,5.45
2023-03-03T01:40:19.692Z,5.56
2023-03-03T01:42:47.832Z,5.46
2023-03-03T01:45:19.996Z,5.41
2023-03-03T01:47:58.087Z,5.31
2023-03-03T01:50:37.202Z,5.41
2023-03-03T01:53:07.940Z,4.72
2023-03-03T01:55:38.547Z,5.37
2023-03-03T01:58:12.353Z,4.76
2023-03-03T02:00:43.709Z,5.45
2023-03-03T02:03:13.485Z,5.49
2023-03-03T02:05:43.254Z,5.40
2023-03-03T02:08:16.925Z,5.37
2023-03-03T02:10:47.352Z,5.28
2023-03-03T02:13:15.651Z,5.35
2023-03-03T02:15:43.699Z,5.32
2023-03-03T02:18:16.907Z,5.29
2023-03-03T02:20:55.345Z,5.31
2023-03-03T02:23:28.428Z,5.29
2023-03-03T02:26:13.668Z,4.27
2023-03-03T02:28:43.270Z,5.21
2023-03-03T02:31:14.314Z,5.21
2023-03-03T02:33:43.288Z,4.68
2023-03-03T02:36:14.706Z,5.10
2023-03-03T02:38:47.607Z,5.18
2023-03-03T02:41:28.430Z,5.15
2023-03-03T02:44:01.209Z,5.15
2023-03-03T02:46:29.534Z,5.07
2023-03-03T02:48:57.677Z,4.84
2023-03-03T02:51:25.807Z,5.18
2023-03-03T02:53:53.991Z,5.20
2023-03-03T02:56:24.111Z,5.21
2023-03-03T02:58:52.566Z,5.20
2023-03-03T03:01:21.070Z,5.25
2023-03-03T03:03:49.313Z,5.17
2023-03-03T03:06:17.568Z,5.08
2023-03-03T03:08:45.731Z,5.18
2023-03-03T03:11:13.837Z,5.23
2023-03-03T03:13:43.376Z,5.08
2023-03-03T03:16:11.539Z,4.26
2023-03-03T03:18:39.702Z,5.09
2023-03-03T03:21:09.864Z,5.14
2023-03-03T03:23:38.488Z,5.12
2023-03-03T03:26:07.380Z,5.09
2023-03-03T03:28:36.154Z,4.92
2023-03-03T03:31:07.033Z,4.84
2023-03-03T03:33:35.276Z,4.78
2023-03-03T03:36:04.745Z,4.78
2023-03-03T03:38:33.373Z,4.76
2023-03-03T03:41:01.846Z,4.79
2023-03-03T03:43:30.619Z,4.82
2023-03-03T03:45:59.171Z,4.84
2023-03-03T03:48:28.823Z,4.50
2023-03-03T03:50:57.024Z,4.84
2023-03-03T03:53:25.241Z,4.73
2023-03-03T03:55:53.431Z,4.90
2023-03-03T03:58:21.795Z,4.97
2023-03-03T04:00:50.024Z,4.96
2023-03-03T04:03:18.471Z,4.99
2023-03-03T04:05:48.323Z,4.87
2023-03-03T04:08:16.555Z,4.73
2023-03-03T04:10:44.663Z,4.64
2023-03-03T04:13:12.838Z,4.38
2023-03-03T04:15:41.122Z,4.70
2023-03-03T04:18:09.347Z,4.82
2023-03-03T04:20:37.527Z,4.71
2023-03-03T04:23:07.173Z,4.70
2023-03-03T04:25:35.392Z,4.62
2023-03-03T04:28:05.515Z,4.48
2023-03-03T04:30:33.866Z,4.28
2023-03-03T04:33:02.085Z,4.32
2023-03-03T04:35:30.503Z,4.23
2023-03-03T04:37:58.791Z,3.98
2023-03-03T04:40:28.496Z,4.35
2023-03-03T04:42:56.831Z,4.31
2023-03-03T04:45:25.005Z,4.27
2023-03-03T04:47:53.284Z,4.30
2023-03-03T04:50:21.558Z,4.30
2023-03-03T04:52:49.758Z,4.25
2023-03-03T04:55:18.175Z,4.24
2023-03-03T04:57:47.824Z,4.26
2023-03-03T05:00:16.673Z,4.35
2023-03-03T05:02:44.896Z,4.36
2023-03-03T05:05:13.835Z,4.14
2023-03-03T05:07:42.481Z,4.19
2023-03-03T05:10:11.874Z,4.28
2023-03-03T05:12:40.188Z,4.29
2023-03-03T05:15:10.833Z,3.20
2023-03-03T05:17:39.091Z,4.30
2023-03-03T05:20:08.692Z,4.29
2023-03-03T05:22:36.796Z,3.98
2023-03-03T05:25:05.435Z,4.50
2023-03-03T05:27:33.612Z,4.40
2023-03-03T05:30:01.680Z,4.40
2023-03-03T05:32:31.252Z,4.50
2023-03-03T05:34:59.403Z,4.26
2023-03-03T05:37:27.610Z,2.10
2023-03-03T05:39:55.742Z,4.49
2023-03-03T05:42:23.949Z,3.31
2023-03-03T05:44:52.332Z,4.48
2023-03-03T05:47:20.499Z,4.35
2023-03-03T05:49:50.037Z,4.50
2023-03-03T05:52:18.208Z,4.41
2023-03-03T05:54:46.472Z,4.58
2023-03-03T05:57:14.590Z,4.57
2023-03-03T05:59:42.814Z,4.71
2023-03-03T06:02:11.012Z,4.65
2023-03-03T06:04:40.056Z,4.83
2023-03-03T06:07:09.573Z,4.76
2023-03-03T06:09:38.233Z,4.39
2023-03-03T06:12:07.165Z,4.64
2023-03-03T06:14:35.494Z,4.63
2023-03-03T06:17:03.699Z,4.74
2023-03-03T06:19:32.003Z,4.74
2023-03-03T06:22:00.877Z,4.80
2023-03-03T06:24:31.816Z,4.36
2023-03-03T06:27:00.748Z,4.91
2023-03-03T06:29:29.553Z,4.98
2023-03-03T06:31:57.948Z,5.03
2023-03-03T06:34:26.188Z,5.07
2023-03-03T06:36:54.565Z,5.14
2023-03-03T06:39:22.791Z,5.16
2023-03-03T06:41:52.467Z,5.16
2023-03-03T06:44:20.776Z,4.94
2023-03-03T06:46:49.057Z,5.17
2023-03-03T06:49:17.146Z,5.27
2023-03-03T06:51:46.626Z,5.22
2023-03-03T06:54:16.831Z,5.28
2023-03-03T06:56:46.733Z,5.05
2023-03-03T06:59:18.576Z,5.39
2023-03-03T07:01:48.727Z,5.28
2023-03-03T07:04:26.351Z,5.33
2023-03-03T07:06:54.573Z,5.44
2023-03-03T07:09:25.570Z,5.24
2023-03-03T07:11:54.256Z,5.32
2023-03-03T07:14:23.969Z,5.30
2023-03-03T07:16:59.413Z,5.28
2023-03-03T07:19:34.465Z,5.33
2023-03-03T07:22:13.505Z,5.34
2023-03-03T07:24:42.117Z,4.70
2023-03-03T07:27:15.476Z,5.41
2023-03-03T07:29:45.218Z,5.51
2023-03-03T07:32:27.156Z,5.34
2023-03-03T07:34:57.114Z,5.65
2023-03-03T07:37:32.238Z,5.67
2023-03-03T07:40:02.077Z,5.40
2023-03-03T07:42:37.639Z,5.52
2023-03-03T07:45:26.281Z,5.57
2023-03-03T07:48:02.070Z,5.49
2023-03-03T07:50:30.319Z,5.86
2023-03-03T07:53:00.749Z,6.00
2023-03-03T07:55:35.496Z,5.96
2023-03-03T07:58:22.341Z,6.12
2023-03-03T08:01:29.481Z,6.33
2023-03-03T08:03:59.407Z,6.41
2023-03-03T08:06:43.791Z,6.49
2023-03-03T08:09:40.681Z,6.63
2023-03-03T08:12:30.151Z,6.61
2023-03-03T08:15:12.697Z,6.81
2023-03-03T08:17:43.710Z,6.87
2023-03-03T08:20:47.526Z,6.97
2023-03-03T08:23:17.797Z,7.08
2023-03-03T08:25:46.597Z,7.17
2023-03-03T08:28:15.541Z,7.17
2023-03-03T08:30:45.413Z,7.24
2023-03-03T08:33:14.792Z,7.32
2023-03-03T08:35:43.698Z,7.14
2023-03-03T08:38:14.958Z,7.54
2023-03-03T08:40:43.273Z,7.51
2023-03-03T08:43:13.375Z,7.62
2023-03-03T08:45:41.622Z,7.63
2023-03-03T08:48:09.874Z,7.53
2023-03-03T08:50:38.666Z,7.44
2023-03-03T08:53:07.660Z,7.46
2023-03-03T08:55:37.343Z,7.53
2023-03-03T08:58:05.734Z,7.53
2023-03-03T09:00:34.583Z,7.02
2023-03-03T09:03:03.208Z,7.81
2023-03-03T09:05:31.859Z,7.96
2023-03-03T09:08:00.882Z,8.11
2023-03-03T09:10:32.013Z,8.25
2023-03-03T09:13:06.047Z,7.84
2023-03-03T09:15:36.272Z,8.40
2023-03-03T09:18:16.251Z,8.32
2023-03-03T09:20:45.746Z,8.81
2023-03-03T09:23:31.672Z,9.05
2023-03-03T09:26:12.580Z,8.85
2023-03-03T09:28:42.177Z,9.50
2023-03-03T09:31:24.802Z,9.55
2023-03-03T09:33:55.375Z,9.82
2023-03-03T09:36:27.332Z,9.15
2023-03-03T09:38:57.076Z,9.93
2023-03-03T09:41:51.888Z,10.05
2023-03-03T09:44:57.322Z,10.09
2023-03-03T09:47:40.711Z,10.24
2023-03-03T09:50:21.954Z,10.21
2023-03-03T09:52:57.334Z,10.38
2023-03-03T09:55:38.071Z,10.75
2023-03-03T09:58:35.519Z,10.70
2023-03-03T10:01:24.345Z,10.72
2023-03-03T10:04:08.366Z,10.55
2023-03-03T10:06:44.156Z,10.55
2023-03-03T10:09:36.851Z,10.72
2023-03-03T10:12:12.370Z,11.00
2023-03-03T10:14:55.230Z,10.94
2023-03-03T10:17:34.412Z,11.04
2023-03-03T10:20:16.753Z,11.21
2023-03-03T10:22:53.881Z,11.23
2023-03-03T10:25:44.615Z,11.23
2023-03-03T10:28:36.546Z,11.30
2023-03-03T10:31:18.600Z,11.45
2023-03-03T10:33:56.415Z,11.75
2023-03-03T10:36:41.327Z,11.14
2023-03-03T10:39:39.905Z,11.59
2023-03-03T10:42:21.215Z,11.75
2023-03-03T10:45:03.507Z,11.45
2023-03-03T10:47:44.652Z,11.80
2023-03-03T10:50:22.499Z,12.13
2023-03-03T10:52:55.670Z,12.24
2023-03-03T10:55:43.887Z,12.30
2023-03-03T10:58:33.822Z,12.27
2023-03-03T11:01:11.865Z,12.24
2023-03-03T11:04:10.246Z,12.07
2023-03-03T11:06:48.294Z,11.90
2023-03-03T11:09:37.886Z,11.36
2023-03-03T11:12:15.965Z,11.72
2023-03-03T11:14:49.236Z,11.18
2023-03-03T11:17:25.343Z,12.00
2023-03-03T11:20:04.973Z,11.81
2023-03-03T11:22:42.147Z,11.43
2023-03-03T11:25:25.333Z,11.26
2023-03-03T11:28:06.680Z,11.53
2023-03-03T11:30:59.980Z,11.61
2023-03-03T11:33:35.465Z,11.55
2023-03-03T11:36:12.351Z,11.25
2023-03-03T11:38:53.429Z,11.07
2023-03-03T11:41:31.545Z,11.03
2023-03-03T11:44:07.201Z,10.80
2023-03-03T11:46:42.145Z,10.98
2023-03-03T11:49:17.340Z,10.98
2023-03-03T11:52:03.021Z,11.12
2023-03-03T11:54:48.412Z,11.06
2023-03-03T11:57:22.825Z,11.34
2023-03-03T12:00:01.013Z,11.39
2023-03-03T12:02:44.192Z,11.36
2023-03-03T12:05:21.182Z,11.00
2023-03-03T12:07:58.907Z,11.46
2023-03-03T12:10:38.732Z,11.16
2023-03-03T12:13:13.231Z,11.35
2023-03-03T12:15:50.683Z,11.37
2023-03-03T12:18:51.469Z,11.69
2023-03-03T12:21:35.803Z,11.14
2023-03-03T12:24:23.667Z,11.69
2023-03-03T12:26:59.790Z,11.77
2023-03-03T12:29:33.111Z,11.46
2023-03-03T12:32:15.963Z,11.65
2023-03-03T12:34:54.207Z,11.85
2023-03-03T12:37:42.082Z,12.07
2023-03-03T12:40:15.763Z,11.98
2023-03-03T12:42:58.846Z,12.21
2023-03-03T12:45:54.072Z,12.25
2023-03-03T12:48:26.813Z,12.36
2023-03-03T12:51:03.521Z,12.13
2023-03-03T12:53:49.871Z,12.50
2023-03-03T12:56:24.788Z,12.42
2023-03-03T12:59:02.280Z,13.42
2023-03-03T13:01:45.308Z,13.52
2023-03-03T13:04:22.670Z,13.45
2023-03-03T13:06:56.932Z,14.02
2023-03-03T13:09:34.646Z,14.19
2023-03-03T13:12:20.492Z,14.68
2023-03-03T13:14:55.210Z,14.50
2023-03-03T13:17:30.082Z,14.06
2023-03-03T13:20:01.229Z,14.07
2023-03-03T13:22:38.961Z,13.58
2023-03-03T13:25:23.546Z,13.18
2023-03-03T13:27:57.774Z,12.92
2023-03-03T13:30:31.941Z,12.32
2023-03-03T13:33:06.793Z,12.49
2023-03-03T13:35:43.722Z,12.42
2023-03-03T13:38:15.064Z,12.27
2023-03-03T13:40:47.300Z,12.05
2023-03-03T13:43:20.300Z,11.80
2023-03-03T13:46:05.983Z,11.88
2023-03-03T13:48:53.859Z,12.08
2023-03-03T13:51:33.769Z,12.43
2023-03-03T13:54:14.534Z,12.63
2023-03-03T13:57:07.480Z,12.68
2023-03-03T13:59:45.484Z,12.69
2023-03-03T14:02:35.961Z,12.78
2023-03-03T14:05:13.011Z,12.67
2023-03-03T14:07:46.648Z,12.66
2023-03-03T14:10:22.016Z,12.63
2023-03-03T14:12:57.935Z,12.51
2023-03-03T14:15:30.949Z,12.34
2023-03-03T14:18:23.105Z,12.42
2023-03-03T14:20:53.786Z,12.19
2023-03-03T14:23:28.854Z,12.25
2023-03-03T14:26:01.620Z,12.18
2023-03-03T14:28:31.455Z,12.08
2023-03-03T14:31:10.820Z,11.82
2023-03-03T14:33:40.927Z,11.88
2023-03-03T14:36:16.127Z,11.98
2023-03-03T14:38:51.804Z,12.07
2023-03-03T14:41:22.592Z,12.04
2023-03-03T14:44:02.479Z,12.09
2023-03-03T14:46:40.410Z,11.91
2023-03-03T14:49:16.999Z,11.82
2023-03-03T14:51:48.479Z,11.54
2023-03-03T14:54:24.143Z,11.50
2023-03-03T14:57:08.463Z,11.41
2023-03-03T14:59:36.678Z,11.25
2023-03-03T15:02:33.247Z,11.37
2023-03-03T15:05:19.938Z,11.30
2023-03-03T15:07:50.397Z,11.71
2023-03-03T15:10:33.521Z,12.19
2023-03-03T15:13:30.408Z,12.32
2023-03-03T15:16:12.299Z,12.80
2023-03-03T15:19:23.958Z,12.76
2023-03-03T15:22:02.822Z,12.70
2023-03-03T15:24:41.622Z,12.62
2023-03-03T15:27:15.252Z,12.49
2023-03-03T15:29:54.415Z,12.35
2023-03-03T15:32:30.830Z,12.24
2023-03-03T15:35:07.840Z,11.90
2023-03-03T15:37:47.227Z,11.58
2023-03-03T15:40:25.892Z,12.08
2023-03-03T15:43:03.325Z,11.72
2023-03-03T15:45:35.634Z,11.84
2023-03-03T15:48:29.998Z,12.02
2023-03-03T15:51:07.973Z,11.98
2023-03-03T15:54:00.008Z,11.90
2023-03-03T15:56:36.174Z,11.66
2023-03-03T15:59:30.881Z,11.48
2023-03-03T16:02:13.391Z,11.30
2023-03-03T16:04:49.664Z,11.21
2023-03-03T16:07:32.148Z,11.01
2023-03-03T16:10:12.324Z,10.29
2023-03-03T16:12:53.614Z,9.76
2023-03-03T16:15:32.987Z,10.56
2023-03-03T16:18:09.769Z,10.33
2023-03-03T16:20:44.978Z,9.32
2023-03-03T16:23:22.725Z,10.38
2023-03-03T16:26:03.887Z,10.29
2023-03-03T16:28:44.396Z,10.16
2023-03-03T16:31:18.619Z,10.20
2023-03-03T16:33:56.545Z,10.17
2023-03-03T16:36:39.092Z,10.09
2023-03-03T16:39:14.395Z,9.94
2023-03-03T16:41:52.528Z,9.89
2023-03-03T16:44:34.790Z,9.76
2023-03-03T16:47:15.538Z,9.62
2023-03-03T16:49:55.503Z,8.93
2023-03-03T16:52:35.091Z,9.37
2023-03-03T16:55:09.768Z,9.41
2023-03-03T16:57:52.569Z,9.33
2023-03-03T17:00:22.992Z,9.27
2023-03-03T17:03:18.957Z,9.19
2023-03-03T17:05:53.198Z,9.11
2023-03-03T17:08:43.053Z,9.15
2023-03-03T17:11:18.367Z,9.15
2023-03-03T17:14:11.503Z,9.07
2023-03-03T17:16:52.643Z,8.90
2023-03-03T17:19:41.764Z,8.78
2023-03-03T17:22:19.405Z,7.77
2023-03-03T17:25:02.028Z,8.45
2023-03-03T17:27:41.858Z,7.98
2023-03-03T17:30:19.276Z,8.41
2023-03-03T17:33:12.614Z,8.32
2023-03-03T17:36:00.484Z,8.28
2023-03-03T17:38:39.716Z,8.37
2023-03-03T17:41:12.461Z,8.40
2023-03-03T17:43:47.246Z,8.46
2023-03-03T17:46:32.233Z,7.51
2023-03-03T17:49:27.019Z,8.31
2023-03-03T17:52:21.379Z,7.51
2023-03-03T17:55:23.402Z,8.13
2023-03-03T17:58:17.330Z,8.00
2023-03-03T18:00:55.419Z,7.41
2023-03-03T18:03:52.682Z,7.90
2023-03-03T18:07:05.159Z,7.79
2023-03-03T18:09:57.939Z,7.90
2023-03-03T18:12:38.954Z,7.52
2023-03-03T18:15:21.647Z,7.97
2023-03-03T18:18:03.442Z,7.96
2023-03-03T18:21:00.728Z,7.89
2023-03-03T18:23:35.489Z,6.48
2023-03-03T18:26:05.805Z,7.59
2023-03-03T18:29:07.358Z,7.65
2023-03-03T18:31:48.480Z,7.63
2023-03-03T18:34:35.044Z,7.50
2023-03-03T18:37:10.757Z,6.87
2023-03-03T18:39:46.096Z,7.33
2023-03-03T18:42:39.938Z,7.25
2023-03-03T18:45:54.084Z,7.15
2023-03-03T18:48:53.386Z,7.14
2023-03-03T18:51:53.623Z,7.05
2023-03-03T18:54:33.454Z,7.11
2023-03-03T18:57:20.787Z,6.93
2023-03-03T19:00:09.763Z,6.82
2023-03-03T19:02:46.426Z,6.92
2023-03-03T19:05:24.078Z,6.93
2023-03-03T19:07:58.118Z,6.73
2023-03-03T19:10:54.103Z,6.92
2023-03-03T19:13:48.387Z,6.85
2023-03-03T19:16:38.952Z,6.27
2023-03-03T19:19:14.109Z,6.99
2023-03-03T19:21:44.030Z,6.99
2023-03-03T19:24:42.575Z,6.92
2023-03-03T19:27:25.351Z,4.96
2023-03-03T19:30:22.805Z,6.94
2023-03-03T19:33:15.194Z,6.98
2023-03-03T19:36:02.750Z,7.08
2023-03-03T19:38:39.807Z,6.92
2023-03-03T19:41:27.967Z,6.74
2023-03-03T19:44:08.872Z,6.61
2023-03-03T19:46:56.503Z,6.71
2023-03-03T19:49:39.562Z,6.66
2023-03-03T19:52:14.148Z,6.37
2023-03-03T19:55:11.775Z,6.59
2023-03-03T19:57:51.649Z,6.51
2023-03-03T20:00:28.674Z,6.74
2023-03-03T20:03:20.758Z,6.54
2023-03-03T20:05:52.745Z,6.58
2023-03-03T20:08:27.268Z,6.39
2023-03-03T20:11:03.293Z,6.29
2023-03-03T20:13:48.489Z,6.20
2023-03-03T20:16:29.892Z,6.13
2023-03-03T20:19:26.406Z,6.08
2023-03-03T20:22:07.832Z,5.91
2023-03-03T20:25:05.371Z,6.03
2023-03-03T20:27:40.721Z,6.06
2023-03-03T20:30:25.295Z,6.03
2023-03-03T20:33:07.388Z,6.12
2023-03-03T20:35:40.685Z,6.12
2023-03-03T20:38:13.693Z,6.03
2023-03-03T20:40:45.338Z,5.87
2023-03-03T20:43:29.075Z,5.66
2023-03-03T20:46:07.882Z,5.41
2023-03-03T20:49:08.740Z,5.59
2023-03-03T20:51:44.820Z,5.61
2023-03-03T20:54:23.627Z,5.56
2023-03-03T20:56:57.836Z,5.62
2023-03-03T20:59:33.100Z,5.55
2023-03-03T21:02:10.419Z,5.41
2023-03-03T21:04:40.176Z,5.52
2023-03-03T21:07:08.382Z,5.47
2023-03-03T21:09:38.998Z,5.48
2023-03-03T21:12:13.247Z,5.46
2023-03-03T21:14:41.485Z,5.49
2023-03-03T21:17:28.123Z,5.38
2023-03-03T21:20:17.738Z,5.39
2023-03-03T21:22:45.961Z,5.37
2023-03-03T21:25:34.194Z,5.36
2023-03-03T21:28:19.691Z,4.32
2023-03-03T21:31:11.647Z,4.88
2023-03-03T21:33:41.547Z,5.14
2023-03-03T21:36:11.634Z,4.98
2023-03-03T21:38:40.228Z,5.12
2023-03-03T21:41:09.953Z,5.12
2023-03-03T21:43:41.056Z,5.08
2023-03-03T21:46:09.584Z,4.78
2023-03-03T21:48:41.854Z,5.08
2023-03-03T21:51:14.122Z,4.90
2023-03-03T21:53:44.177Z,5.03
2023-03-03T21:56:13.963Z,4.98
2023-03-03T21:58:42.530Z,4.93
2023-03-03T22:01:12.133Z,4.84
2023-03-03T22:03:40.751Z,4.77
2023-03-03T22:06:09.103Z,4.83
2023-03-03T22:08:38.736Z,4.83
2023-03-03T22:11:06.919Z,4.95
2023-03-03T22:13:35.120Z,4.84
2023-03-03T22:16:03.372Z,4.59
2023-03-03T22:18:31.536Z,3.83
2023-03-03T22:20:59.778Z,4.55
2023-03-03T22:23:27.951Z,3.66
2023-03-03T22:25:57.577Z,4.26
2023-03-03T22:28:25.971Z,4.27
2023-03-03T22:30:54.232Z,4.29
2023-03-03T22:33:22.642Z,4.03
2023-03-03T22:35:50.870Z,3.62
2023-03-03T22:38:19.101Z,4.25
2023-03-03T22:40:47.334Z,4.15
2023-03-03T22:43:16.974Z,4.13
2023-03-03T22:45:45.404Z,4.25
2023-03-03T22:48:14.114Z,4.26
2023-03-03T22:50:43.726Z,4.26
2023-03-03T22:53:11.847Z,4.22
2023-03-03T22:55:39.956Z,3.80
2023-03-03T22:58:09.617Z,2.97
2023-03-03T23:00:40.025Z,4.14
2023-03-03T23:03:08.555Z,4.13
2023-03-03T23:05:36.965Z,3.98
2023-03-03T23:08:05.519Z,4.18
2023-03-03T23:10:33.708Z,4.09
2023-03-03T23:13:01.828Z,3.98
2023-03-03T23:15:30.117Z,3.91
2023-03-03T23:17:59.677Z,3.93
2023-03-03T23:20:29.517Z,3.92
2023-03-03T23:22:58.525Z,3.97
2023-03-03T23:25:27.044Z,3.79
2023-03-03T23:27:55.939Z,3.90
2023-03-03T23:30:24.928Z,3.15
2023-03-03T23:32:53.230Z,3.95
2023-03-03T23:35:22.695Z,3.88
2023-03-03T23:37:50.837Z,3.89
2023-03-03T23:40:19.371Z,3.77
2023-03-03T23:42:47.518Z,3.45
2023-03-03T23:45:15.830Z,3.57
2023-03-03T23:47:44.169Z,3.50
2023-03-03T23:50:13.630Z,3.53
2023-03-03T23:52:43.257Z,3.47
2023-03-03T23:55:12.029Z,3.44
2023-03-03T23:57:40.122Z,3.47
